Time;durP1;ratioP1;P1;durP2;ratioP2;P2;SDS_P1;SDS_P2;PMS_P1;PMS_P2;Temp;Humidity;BMP_temperature;BMP_pressure;BME280_temperature;BME280_humidity;BME280_pressure;Samples;Min_cycle;Max_cycle;Signal;HPM_P1;HPM_P2
2023/12/17 00:04:11;;;;;;;;;;;;;;;0.56;100.00;97862.88;10496234;28;2035;-66
2023/12/17 00:09:18;;;;;;;;;;;;;;;0.60;100.00;97873.00;10500871;28;2149;-66
2023/12/17 00:14:21;;;;;;;;;;;;;;;0.54;100.00;97881.59;10515600;27;2050;-72
2023/12/17 00:19:26;;;;;;;;;;;;;;;0.45;100.00;97880.72;10501617;28;2106;-68
2023/12/17 00:24:34;;;;;;;;;;;;;;;0.40;100.00;97888.31;10497548;28;2108;-67
2023/12/17 00:29:40;;;;;;;;;;;;;;;0.37;100.00;97888.59;10516151;27;1977;-69
2023/12/17 00:34:46;;;;;;;;;;;;;;;0.25;100.00;97887.22;10527183;27;2106;-70
2023/12/17 00:39:53;;;;;;;;;;;;;;;0.33;100.00;97879.34;10484238;28;3041;-68
2023/12/17 00:44:57;;;;;;;;;;;;;;;0.16;100.00;97877.59;10496023;28;4975;-74
2023/12/17 00:50:03;;;;;;;;;;;;;;;0.13;100.00;97875.28;10490920;28;2121;-68
2023/12/17 00:55:07;;;;;;;;;;;;;;;0.13;100.00;97889.31;10492892;28;2110;-67
2023/12/17 01:00:12;;;;;;;;;;;;;;;0.11;100.00;97882.50;10494226;28;2075;-68
2023/12/17 01:05:29;;;;;;;;;;;;;;;0.04;100.00;97894.69;10514914;28;2110;-68
2023/12/17 01:10:33;;;;;;;;;;;;;;;-0.07;100.00;97891.31;10475049;28;2102;-68
2023/12/17 01:15:43;;;;;;;;;;;;;;;-0.14;100.00;97902.66;10493685;28;2133;-67
2023/12/17 01:20:47;;;;;;;;;;;;;;;0.09;100.00;97917.03;10493794;28;2068;-68
2023/12/17 01:25:50;;;;;;;;;;;;;;;0.03;100.00;97927.41;10493098;28;2068;-67
2023/12/17 01:30:56;;;;;;;;;;;;;;;0.11;100.00;97935.41;10496834;28;2239;-68
2023/12/17 01:36:00;;;;;;;;;;;;;;;0.02;100.00;97931.06;10508590;28;2188;-72
2023/12/17 01:41:06;;;;;;;;;;;;;;;-0.07;100.00;97928.31;10489045;28;4971;-70
2023/12/17 01:46:11;;;;;;;;;;;;;;;-0.13;100.00;97928.94;10505764;28;2095;-67
2023/12/17 01:51:17;;;;;;;;;;;;;;;-0.07;100.00;97936.25;10504882;28;2376;-67
2023/12/17 01:56:24;;;;;;;;;;;;;;;-0.10;100.00;97930.47;10502533;28;2209;-67
2023/12/17 02:01:32;;;;;;;;;;;;;;;-0.14;100.00;97937.03;10486576;28;2062;-67
2023/12/17 02:06:40;;;;;;;;;;;;;;;-0.12;100.00;97949.13;10506574;28;2058;-67
2023/12/17 02:11:56;;;;;;;;;;;;;;;-0.12;100.00;97961.53;10479870;28;2133;-68
2023/12/17 02:17:00;;;;;;;;;;;;;;;-0.17;100.00;97956.69;10498006;28;2201;-66
2023/12/17 02:22:04;;;;;;;;;;;;;;;-0.13;100.00;97952.72;10514359;28;2126;-67
2023/12/17 02:27:14;;;;;;;;;;;;;;;-0.07;100.00;97959.22;10496759;28;2062;-68
2023/12/17 02:32:20;;;;;;;;;;;;;;;-0.11;100.00;97953.44;10497405;28;2094;-67
2023/12/17 02:37:27;;;;;;;;;;;;;;;-0.14;100.00;97956.34;10513947;27;2141;-70
2023/12/17 02:42:30;;;;;;;;;;;;;;;-0.17;100.00;97947.91;10498509;28;5177;-68
2023/12/17 02:47:33;;;;;;;;;;;;;;;-0.17;100.00;97940.81;10509044;28;2268;-65
2023/12/17 02:52:38;;;;;;;;;;;;;;;-0.25;100.00;97918.75;10496706;28;2273;-73
2023/12/17 02:57:44;;;;;;;;;;;;;;;-0.31;100.00;97922.88;10494725;28;2046;-66
2023/12/17 03:02:51;;;;;;;;;;;;;;;-0.23;100.00;97922.09;10511634;27;2086;-67
2023/12/17 03:07:59;;;;;;;;;;;;;;;-0.34;100.00;97913.41;10511189;28;2067;-67
2023/12/17 03:13:07;;;;;;;;;;;;;;;-0.22;100.00;97903.44;10495520;28;2089;-67
2023/12/17 03:18:11;;;;;;;;;;;;;;;-0.11;100.00;97903.19;10496890;28;2186;-66
2023/12/17 03:23:20;;;;;;;;;;;;;;;-0.06;100.00;97897.44;10493945;28;2080;-66
2023/12/17 03:28:22;;;;;;;;;;;;;;;-0.16;100.00;97894.06;10479125;28;2130;-67
2023/12/17 03:33:26;;;;;;;;;;;;;;;-0.18;100.00;97904.81;10522084;27;2126;-68
2023/12/17 03:38:38;;;;;;;;;;;;;;;-0.20;100.00;97912.03;10479764;28;2096;-67
2023/12/17 03:43:46;;;;;;;;;;;;;;;-0.28;100.00;97904.88;10507353;27;4962;-71
2023/12/17 03:48:49;;;;;;;;;;;;;;;-0.37;100.00;97897.88;10494561;28;2118;-68
2023/12/17 03:53:53;;;;;;;;;;;;;;;-0.45;100.00;97897.78;10494038;28;2059;-67
2023/12/17 03:58:57;;;;;;;;;;;;;;;-0.38;100.00;97911.22;10510466;28;2411;-70
2023/12/17 04:04:03;;;;;;;;;;;;;;;-0.34;100.00;97902.03;10497661;28;2172;-68
2023/12/17 04:09:08;;;;;;;;;;;;;;;-0.37;100.00;97891.75;10512773;28;2067;-66
2023/12/17 04:14:14;;;;;;;;;;;;;;;-0.38;100.00;97876.88;10489801;28;2187;-67
2023/12/17 04:19:20;;;;;;;;;;;;;;;-0.42;100.00;97871.06;10494565;28;2251;-67
2023/12/17 04:24:25;;;;;;;;;;;;;;;-0.40;100.00;97870.91;10474433;28;2264;-66
2023/12/17 04:29:33;;;;;;;;;;;;;;;-0.34;100.00;97850.00;10509046;28;2152;-67
2023/12/17 04:34:37;;;;;;;;;;;;;;;-0.27;100.00;97815.84;10504841;27;7555;-71
2023/12/17 04:39:41;;;;;;;;;;;;;;;-0.20;100.00;97816.88;10492147;28;5250;-72
2023/12/17 04:44:50;;;;;;;;;;;;;;;-0.17;100.00;97816.59;10506138;27;5310;-67
2023/12/17 04:49:58;;;;;;;;;;;;;;;-0.28;100.00;97804.44;10506408;28;4741;-67
2023/12/17 04:55:02;;;;;;;;;;;;;;;-0.33;100.00;97811.19;10491064;28;2034;-67
2023/12/17 05:00:08;;;;;;;;;;;;;;;-0.43;100.00;97815.75;10492391;28;2150;-67
2023/12/17 05:05:19;;;;;;;;;;;;;;;-0.56;100.00;97827.53;10491653;28;2084;-68
2023/12/17 05:10:22;;;;;;;;;;;;;;;-0.57;100.00;97822.44;10483460;28;4177;-69
2023/12/17 05:15:28;;;;;;;;;;;;;;;-0.67;100.00;97817.22;10471941;28;2091;-67
2023/12/17 05:20:31;;;;;;;;;;;;;;;-0.72;100.00;97810.72;10473402;28;2101;-67
2023/12/17 05:25:37;;;;;;;;;;;;;;;-0.76;100.00;97819.94;10504454;28;2194;-66
2023/12/17 05:30:42;;;;;;;;;;;;;;;-0.77;100.00;97824.38;10492094;28;2142;-67
2023/12/17 05:35:52;;;;;;;;;;;;;;;-0.71;100.00;97836.16;10504656;28;2085;-67
2023/12/17 05:40:56;;;;;;;;;;;;;;;-0.80;100.00;97835.25;10495125;28;6250;-67
2023/12/17 05:45:59;;;;;;;;;;;;;;;-0.86;100.00;97831.41;10508119;28;2180;-67
2023/12/17 05:51:09;;;;;;;;;;;;;;;-0.92;100.00;97821.47;10490230;28;2023;-67
2023/12/17 05:56:15;;;;;;;;;;;;;;;-0.91;100.00;97819.66;10491358;28;2105;-67
2023/12/17 06:01:19;;;;;;;;;;;;;;;-0.94;100.00;97819.97;10491120;28;2157;-68
2023/12/17 06:06:24;;;;;;;;;;;;;;;-0.92;100.00;97812.72;10510327;28;1969;-68
2023/12/17 06:11:32;;;;;;;;;;;;;;;-0.97;100.00;97818.44;10489819;28;2137;-67
2023/12/17 06:16:38;;;;;;;;;;;;;;;-0.97;100.00;97813.16;10495784;28;2144;-66
2023/12/17 06:21:43;;;;;;;;;;;;;;;-0.99;100.00;97816.94;10506305;28;2058;-68
2023/12/17 06:26:50;;;;;;;;;;;;;;;-1.01;100.00;97822.38;10472098;28;2165;-67
2023/12/17 06:31:56;;;;;;;;;;;;;;;-1.03;100.00;97834.03;10493623;28;2099;-64
2023/12/17 06:37:01;;;;;;;;;;;;;;;-0.86;100.00;97835.88;10485217;28;2279;-67
2023/12/17 06:42:12;;;;;;;;;;;;;;;-0.63;100.00;97842.34;10489768;28;5001;-71
2023/12/17 06:47:18;;;;;;;;;;;;;;;-0.77;100.00;97839.41;10507584;28;2090;-69
2023/12/17 06:52:31;;;;;;;;;;;;;;;-0.85;100.00;97832.25;10500848;28;1985;-72
2023/12/17 06:57:46;;;;;;;;;;;;;;;-0.95;100.00;97831.50;10497199;28;2141;-74
2023/12/17 07:02:50;;;;;;;;;;;;;;;-0.82;100.00;97835.44;10495531;28;2098;-74
2023/12/17 07:07:54;;;;;;;;;;;;;;;-0.66;100.00;97839.16;10500909;28;2250;-68
2023/12/17 07:12:58;;;;;;;;;;;;;;;-0.60;100.00;97839.38;10511039;27;2059;-68
2023/12/17 07:18:02;;;;;;;;;;;;;;;-0.61;100.00;97843.03;10495607;28;2327;-67
2023/12/17 07:23:07;;;;;;;;;;;;;;;-0.56;100.00;97851.31;10508540;28;2227;-66
2023/12/17 07:28:16;;;;;;;;;;;;;;;-0.49;100.00;97838.34;10496636;28;2054;-70
2023/12/17 07:33:22;;;;;;;;;;;;;;;-0.50;100.00;97836.69;10495371;28;2060;-68
2023/12/17 07:38:28;;;;;;;;;;;;;;;-0.49;100.00;97837.50;10478523;28;2080;-68
2023/12/17 07:43:35;;;;;;;;;;;;;;;-0.39;100.00;97839.03;10500228;28;5025;-70
2023/12/17 07:48:39;;;;;;;;;;;;;;;-0.31;100.00;97830.38;10482914;28;2078;-67
2023/12/17 07:53:45;;;;;;;;;;;;;;;-0.30;100.00;97827.56;10511442;28;2153;-68
2023/12/17 07:58:49;;;;;;;;;;;;;;;-0.13;100.00;97831.13;10501921;28;2261;-67
2023/12/17 08:03:53;;;;;;;;;;;;;;;0.00;100.00;97838.66;10508514;27;2210;-67
2023/12/17 08:09:00;;;;;;;;;;;;;;;0.10;100.00;97838.53;10496292;28;2122;-68
2023/12/17 08:14:04;;;;;;;;;;;;;;;0.22;100.00;97842.56;10490949;28;2253;-67
2023/12/17 08:19:12;;;;;;;;;;;;;;;0.35;100.00;97842.97;10498741;28;2294;-67
2023/12/17 08:24:18;;;;;;;;;;;;;;;0.65;100.00;97827.53;10474671;28;2067;-69
2023/12/17 08:29:24;;;;;;;;;;;;;;;0.82;100.00;97826.56;10495622;28;2163;-72
2023/12/17 08:34:29;;;;;;;;;;;;;;;1.01;100.00;97828.09;10491985;28;2070;-68
2023/12/17 08:39:35;;;;;;;;;;;;;;;1.05;100.00;97837.38;10478647;28;2132;-69
2023/12/17 08:44:39;;;;;;;;;;;;;;;1.14;100.00;97838.22;10491266;28;5987;-67
2023/12/17 08:49:44;;;;;;;;;;;;;;;1.22;100.00;97836.44;10494606;28;2159;-66
2023/12/17 08:54:48;;;;;;;;;;;;;;;1.24;100.00;97821.19;10492522;28;2272;-72
2023/12/17 09:00:00;;;;;;;;;;;;;;;1.38;100.00;97840.06;10495197;28;2074;-71
2023/12/17 09:05:12;;;;;;;;;;;;;;;1.46;100.00;97824.97;10491601;28;2042;-73
2023/12/17 09:10:19;;;;;;;;;;;;;;;1.63;100.00;97824.00;10500478;28;2267;-68
2023/12/17 09:15:34;;;;;;;;;;;;;;;1.73;100.00;97815.06;10490194;28;2187;-67
2023/12/17 09:20:40;;;;;;;;;;;;;;;1.77;100.00;97808.41;10491247;28;2126;-68
2023/12/17 09:25:44;;;;;;;;;;;;;;;1.95;100.00;97816.16;10508775;28;2112;-69
2023/12/17 09:30:53;;;;;;;;;;;;;;;2.00;100.00;97814.66;10495144;28;2125;-68
2023/12/17 09:36:05;;;;;;;;;;;;;;;2.12;100.00;97817.78;10495307;28;2294;-69
2023/12/17 09:41:15;;;;;;;;;;;;;;;2.21;100.00;97798.19;10475916;28;5349;-68
2023/12/17 09:46:29;;;;;;;;;;;;;;;2.42;100.00;97802.94;10489341;28;2122;-71
2023/12/17 09:51:35;;;;;;;;;;;;;;;2.50;100.00;97805.53;10494815;28;2028;-69
2023/12/17 09:56:49;;;;;;;;;;;;;;;2.65;100.00;97803.78;10506373;28;2077;-66
2023/12/17 10:01:54;;;;;;;;;;;;;;;2.73;100.00;97813.53;10509291;28;2048;-70
2023/12/17 10:06:57;;;;;;;;;;;;;;;2.87;100.00;97812.00;10495044;28;2058;-69
2023/12/17 10:12:06;;;;;;;;;;;;;;;3.02;100.00;97804.09;10510880;28;2207;-68
2023/12/17 10:17:13;;;;;;;;;;;;;;;3.14;100.00;97798.19;10490472;28;2069;-69
2023/12/17 10:22:29;;;;;;;;;;;;;;;3.23;100.00;97790.97;10475584;28;2388;-70
2023/12/17 10:27:35;;;;;;;;;;;;;;;3.34;100.00;97789.75;10495513;28;1921;-68
2023/12/17 10:32:43;;;;;;;;;;;;;;;3.41;100.00;97783.53;10481103;28;2180;-69
2023/12/17 10:37:49;;;;;;;;;;;;;;;3.52;100.00;97783.09;10499471;28;2167;-72
2023/12/17 10:48:36;;;;;;;;;;;;;;;3.85;100.00;97768.66;10497755;28;2083;-69
2023/12/17 10:53:41;;;;;;;;;;;;;;;3.95;100.00;97758.59;10496435;28;1998;-69
2023/12/17 10:58:51;;;;;;;;;;;;;;;4.09;100.00;97755.09;10494265;28;2304;-69
2023/12/17 11:04:11;;;;;;;;;;;;;;;4.17;100.00;97747.00;10495291;28;2034;-70
2023/12/17 11:09:18;;;;;;;;;;;;;;;4.33;100.00;97746.81;10494855;28;3413;-69
2023/12/17 11:14:29;;;;;;;;;;;;;;;4.38;100.00;97732.09;10492665;28;3032;-69
2023/12/17 11:19:35;;;;;;;;;;;;;;;4.52;100.00;97725.94;10494781;28;2517;-70
2023/12/17 11:24:54;;;;;;;;;;;;;;;4.58;100.00;97706.50;10494001;28;2135;-68
2023/12/17 11:30:00;;;;;;;;;;;;;;;4.62;100.00;97699.81;10496168;28;2175;-70
2023/12/17 11:35:04;;;;;;;;;;;;;;;4.78;100.00;97693.44;10510430;27;2126;-69
2023/12/17 11:40:12;;;;;;;;;;;;;;;4.86;100.00;97696.78;10475616;28;2158;-69
2023/12/17 11:51:23;;;;;;;;;;;;;;;5.08;100.00;97684.25;10561453;27;3915;-69
2023/12/17 11:56:32;;;;;;;;;;;;;;;5.30;100.00;97687.75;10565887;27;2146;-68
2023/12/17 12:01:35;;;;;;;;;;;;;;;5.37;100.00;97679.78;10588879;27;2122;-72
2023/12/17 12:06:46;;;;;;;;;;;;;;;5.50;100.00;97673.72;10590733;27;2448;-69
2023/12/17 12:12:00;;;;;;;;;;;;;;;5.57;100.00;97669.25;10572403;27;2001;-69
2023/12/17 12:17:07;;;;;;;;;;;;;;;5.65;100.00;97656.56;10565947;27;2190;-69
2023/12/17 12:22:14;;;;;;;;;;;;;;;5.60;100.00;97650.22;10590596;27;2231;-69
2023/12/17 12:27:20;;;;;;;;;;;;;;;5.65;100.00;97639.75;10591284;27;2168;-69
2023/12/17 12:32:27;;;;;;;;;;;;;;;5.67;100.00;97633.22;10567108;27;2151;-70
2023/12/17 12:37:32;;;;;;;;;;;;;;;5.78;100.00;97639.81;10585794;27;2070;-69
2023/12/17 12:42:35;;;;;;;;;;;;;;;5.86;100.00;97638.84;10572110;27;5205;-70
2023/12/17 12:47:43;;;;;;;;;;;;;;;5.81;100.00;97639.44;10586137;27;3239;-69
2023/12/17 12:53:07;;;;;;;;;;;;;;;5.92;100.00;97622.91;10584696;27;2108;-73
2023/12/17 12:58:39;;;;;;;;;;;;;;;5.83;100.00;97604.53;10569403;27;2086;-70
2023/12/17 13:03:50;;;;;;;;;;;;;;;5.93;100.00;97597.84;10568607;27;1944;-70
2023/12/17 13:09:04;;;;;;;;;;;;;;;6.00;100.00;97597.06;10588709;27;2153;-70
2023/12/17 13:14:15;;;;;;;;;;;;;;;6.02;100.00;97600.34;10573956;27;1979;-70
2023/12/17 13:19:43;;;;;;;;;;;;;;;6.12;100.00;97587.44;10587259;27;2185;-70
2023/12/17 13:24:47;;;;;;;;;;;;;;;6.13;100.00;97586.41;10587947;27;2063;-70
2023/12/17 13:29:54;;;;;;;;;;;;;;;6.19;100.00;97588.28;10569568;27;2646;-70
2023/12/17 13:35:13;;;;;;;;;;;;;;;6.19;100.00;97588.28;10564065;27;2024;-71
2023/12/17 13:40:20;;;;;;;;;;;;;;;6.23;100.00;97586.84;10580846;27;2096;-68
2023/12/17 13:45:25;;;;;;;;;;;;;;;6.24;100.00;97577.81;10567596;27;5038;-69
2023/12/17 13:50:28;;;;;;;;;;;;;;;6.27;100.00;97574.72;10586583;27;3153;-68
2023/12/17 13:55:34;;;;;;;;;;;;;;;6.31;100.00;97572.50;10584711;27;2139;-69
2023/12/17 14:00:46;;;;;;;;;;;;;;;6.43;100.00;97563.69;10591853;27;1972;-68
2023/12/17 14:05:50;;;;;;;;;;;;;;;6.36;100.00;97556.66;10594297;27;2026;-64
2023/12/17 14:10:58;;;;;;;;;;;;;;;6.21;100.00;97562.19;10575622;27;2055;-67
2023/12/17 14:16:11;;;;;;;;;;;;;;;6.03;100.00;97561.94;10582004;27;2084;-68
2023/12/17 14:21:28;;;;;;;;;;;;;;;5.97;100.00;97561.69;10579106;27;2073;-69
2023/12/17 14:26:34;;;;;;;;;;;;;;;5.83;100.00;97554.66;10599240;27;2062;-73
2023/12/17 14:31:47;;;;;;;;;;;;;;;5.64;100.00;97553.53;10590496;27;2081;-70
2023/12/17 14:36:56;;;;;;;;;;;;;;;5.59;100.00;97542.63;10584927;27;2198;-67
2023/12/17 14:42:02;;;;;;;;;;;;;;;5.58;100.00;97543.66;10591398;27;5088;-70
2023/12/17 14:47:20;;;;;;;;;;;;;;;5.49;100.00;97539.53;10587944;27;2164;-69
2023/12/17 14:52:29;;;;;;;;;;;;;;;5.32;100.00;97541.69;10590393;27;2118;-67
2023/12/17 14:57:34;;;;;;;;;;;;;;;5.19;100.00;97544.28;10575829;27;2527;-68
2023/12/17 15:02:39;;;;;;;;;;;;;;;5.02;100.00;97542.94;10578586;27;2469;-73
2023/12/17 15:07:50;;;;;;;;;;;;;;;5.01;100.00;97543.97;10585352;27;2358;-75
2023/12/17 15:12:54;;;;;;;;;;;;;;;5.05;100.00;97548.72;10575035;27;2063;-72
2023/12/17 15:18:00;;;;;;;;;;;;;;;4.86;100.00;97558.22;10591254;27;2174;-68
2023/12/17 15:23:07;;;;;;;;;;;;;;;4.67;100.00;97550.91;10594208;27;2135;-68
2023/12/17 15:28:13;;;;;;;;;;;;;;;4.43;100.00;97548.63;10594395;27;2240;-69
2023/12/17 15:33:23;;;;;;;;;;;;;;;4.44;100.00;97551.09;10588654;27;2146;-67
2023/12/17 15:43:49;;;;;;;;;;;;;;;4.23;100.00;97559.94;10594097;27;2122;-68
2023/12/17 15:48:54;;;;;;;;;;;;;;;4.07;100.00;97566.31;10575155;27;2363;-66
2023/12/17 15:53:59;;;;;;;;;;;;;;;3.89;100.00;97567.75;10590476;27;2172;-70
2023/12/17 15:59:03;;;;;;;;;;;;;;;3.70;100.00;97567.34;10590429;27;2031;-74
2023/12/17 16:04:09;;;;;;;;;;;;;;;3.60;100.00;97574.75;10593401;27;2094;-69
2023/12/17 16:09:16;;;;;;;;;;;;;;;3.52;100.00;97577.53;10592865;27;2067;-69
2023/12/17 16:14:35;;;;;;;;;;;;;;;3.37;100.00;97580.22;10594983;27;2100;-72
2023/12/17 16:19:48;;;;;;;;;;;;;;;3.37;100.00;97595.31;10591797;27;2071;-70
2023/12/17 16:25:03;;;;;;;;;;;;;;;3.34;100.00;97601.00;10567630;27;2373;-71
2023/12/17 16:30:08;;;;;;;;;;;;;;;3.23;100.00;97596.97;10578673;27;2180;-68
2023/12/17 16:35:20;;;;;;;;;;;;;;;3.08;100.00;97604.09;10602986;27;1831;-68
2023/12/17 16:40:26;;;;;;;;;;;;;;;2.96;100.00;97617.81;10587430;27;1496;-67
2023/12/17 16:45:43;;;;;;;;;;;;;;;2.86;100.00;97616.41;10586209;27;6368;-68
2023/12/17 16:50:55;;;;;;;;;;;;;;;2.75;100.00;97608.91;10599049;27;1906;-68
2023/12/17 16:56:11;;;;;;;;;;;;;;;2.65;100.00;97617.91;10601652;27;1679;-69
2023/12/17 17:01:14;;;;;;;;;;;;;;;2.50;100.00;97614.41;10615813;27;2334;-68
2023/12/17 17:06:20;;;;;;;;;;;;;;;2.43;100.00;97618.78;10591368;27;1576;-69
2023/12/17 17:11:24;;;;;;;;;;;;;;;2.43;100.00;97616.13;10596777;27;1993;-69
2023/12/17 17:16:28;;;;;;;;;;;;;;;2.35;100.00;97600.22;10594891;27;1471;-71
2023/12/17 17:21:45;;;;;;;;;;;;;;;2.37;100.00;97608.88;10583535;27;1505;-70
2023/12/17 17:26:56;;;;;;;;;;;;;;;2.33;100.00;97611.03;10557426;27;2047;-70
2023/12/17 17:32:00;;;;;;;;;;;;;;;2.27;100.00;97618.88;10586145;27;2339;-68
2023/12/17 17:37:12;;;;;;;;;;;;;;;2.28;100.00;97620.53;10569545;27;2109;-69
2023/12/17 17:42:22;;;;;;;;;;;;;;;2.16;100.00;97618.28;10586334;27;5080;-69
2023/12/17 17:47:29;;;;;;;;;;;;;;;2.10;100.00;97613.69;10585780;27;2239;-70
2023/12/17 17:52:33;;;;;;;;;;;;;;;2.04;100.00;97621.53;10579998;27;2149;-68
2023/12/17 17:57:40;;;;;;;;;;;;;;;1.99;100.00;97621.22;10583968;27;2303;-69
2023/12/17 18:02:50;;;;;;;;;;;;;;;1.85;100.00;97614.81;10567652;27;2107;-69
2023/12/17 18:07:58;;;;;;;;;;;;;;;1.83;100.00;97608.84;10566513;27;2116;-67
2023/12/17 18:13:06;;;;;;;;;;;;;;;1.88;100.00;97609.97;10570780;27;2245;-68
2023/12/17 18:18:11;;;;;;;;;;;;;;;1.85;100.00;97609.50;10588635;27;2086;-72
2023/12/17 18:23:18;;;;;;;;;;;;;;;1.85;100.00;97598.91;10599944;27;2103;-70
2023/12/17 18:51:00;;;;;;;;;;;;;;;1.82;100.00;97594.75;10588145;27;2133;-71
2023/12/17 18:57:19;;;;;;;;;;;;;;;1.70;100.00;97588.19;10608876;27;2161;-74
2023/12/17 19:02:58;;;;;;;;;;;;;;;1.65;100.00;97595.84;10604937;27;2066;-74
2023/12/17 19:08:27;;;;;;;;;;;;;;;1.67;100.00;97587.72;10616600;27;1947;-73
2023/12/17 19:13:47;;;;;;;;;;;;;;;1.66;100.00;97580.78;10546781;27;2045;-75
2023/12/17 19:25:10;;;;;;;;;;;;;;;1.50;100.00;97586.97;10591115;27;1946;-70
2023/12/17 19:42:04;;;;;;;;;;;;;;;1.37;100.00;97587.50;10590561;27;2461;-71
2023/12/17 19:47:56;;;;;;;;;;;;;;;1.34;100.00;97579.91;10450107;28;2093;-71
2023/12/17 20:11:13;;;;;;;;;;;;;;;1.27;100.00;97581.56;10432951;28;2025;-70
2023/12/17 20:16:29;;;;;;;;;;;;;;;1.25;100.00;97580.94;10450138;28;1502;-69
2023/12/17 20:21:47;;;;;;;;;;;;;;;1.23;100.00;97578.44;10510983;27;1600;-68
2023/12/17 20:26:59;;;;;;;;;;;;;;;1.20;100.00;97578.78;10583052;27;1463;-68
2023/12/17 20:32:07;;;;;;;;;;;;;;;1.18;100.00;97579.97;10600765;27;1898;-69
2023/12/17 20:37:13;;;;;;;;;;;;;;;1.13;100.00;97582.28;10601825;27;1458;-68
2023/12/17 20:42:25;;;;;;;;;;;;;;;1.06;100.00;97582.97;10576866;27;5103;-67
2023/12/17 20:47:42;;;;;;;;;;;;;;;1.03;100.00;97580.66;10607297;27;2320;-70
2023/12/17 20:52:49;;;;;;;;;;;;;;;1.01;100.00;97590.56;10598450;27;1992;-69
2023/12/17 20:57:54;;;;;;;;;;;;;;;0.99;100.00;97589.09;10606821;27;1403;-68
2023/12/17 21:03:07;;;;;;;;;;;;;;;0.92;100.00;97585.47;10604046;27;1478;-70
2023/12/17 21:08:11;;;;;;;;;;;;;;;0.87;100.00;97593.09;10612303;27;1470;-69
2023/12/17 21:13:17;;;;;;;;;;;;;;;0.74;100.00;97589.16;10587242;27;1921;-69
2023/12/17 21:18:20;;;;;;;;;;;;;;;0.75;100.00;97582.84;10586039;27;1936;-70
2023/12/17 21:23:24;;;;;;;;;;;;;;;0.80;100.00;97582.34;10596843;27;1740;-72
2023/12/17 21:28:30;;;;;;;;;;;;;;;0.82;100.00;97585.66;10585277;27;1420;-70
2023/12/17 21:33:36;;;;;;;;;;;;;;;0.78;100.00;97592.28;10588558;27;1902;-70
2023/12/17 21:38:51;;;;;;;;;;;;;;;0.76;100.00;97596.91;10615980;27;1491;-68
2023/12/17 21:44:02;;;;;;;;;;;;;;;0.76;100.00;97595.13;10565901;27;5092;-70
2023/12/17 21:49:10;;;;;;;;;;;;;;;0.75;100.00;97595.25;10597847;27;1759;-71
2023/12/17 21:54:21;;;;;;;;;;;;;;;0.76;100.00;97602.19;10578854;27;1910;-70
2023/12/17 21:59:40;;;;;;;;;;;;;;;0.73;100.00;97597.25;10597877;27;1931;-70
2023/12/17 22:04:48;;;;;;;;;;;;;;;0.77;100.00;97593.28;10584593;27;1851;-72
2023/12/17 22:09:53;;;;;;;;;;;;;;;0.78;100.00;97592.28;10586176;27;1863;-71
2023/12/17 22:14:57;;;;;;;;;;;;;;;0.73;100.00;97590.13;10601115;27;1931;-71
2023/12/17 22:20:06;;;;;;;;;;;;;;;0.71;100.00;97589.50;10604673;27;1924;-74
2023/12/17 22:25:09;;;;;;;;;;;;;;;0.71;100.00;97593.97;10602186;27;2675;-75
2023/12/17 22:30:12;;;;;;;;;;;;;;;0.68;100.00;97594.28;10601687;27;1889;-69
2023/12/17 22:35:17;;;;;;;;;;;;;;;0.64;100.00;97599.09;10613309;27;2017;-70
2023/12/17 22:40:22;;;;;;;;;;;;;;;0.64;100.00;97609.69;10603512;27;1836;-71
2023/12/17 22:45:29;;;;;;;;;;;;;;;0.61;100.00;97617.13;10589457;27;5041;-73
2023/12/17 22:50:32;;;;;;;;;;;;;;;0.60;100.00;97615.47;10591668;27;1898;-71
2023/12/17 22:55:36;;;;;;;;;;;;;;;0.55;100.00;97621.25;10589906;27;1921;-70
2023/12/17 23:00:54;;;;;;;;;;;;;;;0.59;100.00;97611.16;10603169;27;1928;-71
2023/12/17 23:06:03;;;;;;;;;;;;;;;0.57;100.00;97608.66;10603084;27;1854;-69
2023/12/17 23:11:09;;;;;;;;;;;;;;;0.54;100.00;97604.53;10606344;27;1863;-68
2023/12/17 23:16:13;;;;;;;;;;;;;;;0.55;100.00;97610.66;10593399;27;2009;-71
2023/12/17 23:21:22;;;;;;;;;;;;;;;0.52;100.00;97605.72;10601260;27;2074;-69
2023/12/17 23:26:35;;;;;;;;;;;;;;;0.47;100.00;97611.50;10576366;27;2306;-70
2023/12/17 23:31:42;;;;;;;;;;;;;;;0.45;100.00;97615.31;10579419;27;1957;-69
2023/12/17 23:36:54;;;;;;;;;;;;;;;0.41;100.00;97613.97;10593106;27;1963;-70
2023/12/17 23:41:58;;;;;;;;;;;;;;;0.36;100.00;97605.69;10580764;27;5200;-69
2023/12/17 23:47:02;;;;;;;;;;;;;;;0.34;100.00;97613.81;10610753;27;3206;-69
2023/12/17 23:52:20;;;;;;;;;;;;;;;0.29;100.00;97594.13;10588980;27;2313;-72
2023/12/17 23:57:24;;;;;;;;;;;;;;;0.31;100.00;97578.91;10593664;27;1962;-69
